Terminal Aerodrome Forecast
Issued by NWS

Home | Current Version | Previous Version | Text Only | Print | Product List | Glossary On
Versions: 1 2 3 4 5 6 7 8 9 10 11
000
FTUS43 KPAH 130525
TAFCGI
TAF
KCGI 130525Z 1306/1406 19004KT P6SM SKC
     FM131400 20011G19KT P6SM FEW250
     FM131600 22016G28KT P6SM FEW250
     FM132300 26011KT P6SM FEW250
     FM140200 29007KT P6SM FEW250=

USA.gov is the U.S. government's official web portal to all federal, state and local government web resources and services.